Arcadia, Oklahoma
Current Conditions -  °F | °C
As of 3:53 AM on Monday 20 Oct 2014 (Local Time) from KGOK Reporting Station
Broken Clouds Broken Clouds  
Wind Chill: 64°   Ceiling: 7000
Heat Index: 64°   Visibility: 10mi
Dew Point: 54°   Wind: 9mph
Humidity: 70%   Direction: 200°SSW
Pressure: 30.02"   Gusts: NA
Location:  35.67°N, 97.33°W
Report Text: KGOK 200853Z AUTO 20008KT 10SM BKN070 18/12 A3002 RMK AO2 SLP158 T01780122 58003
Loading
Personal Weather Stations






























Interactive Weather Map New forecast layout! Learn more

10-Day Weather Forecast

Advertisements
Track Severe Weather on mobile